createdAt,value
2019-05-22T00:00:47.854Z,68.00
2019-05-22T00:03:19.260Z,68.00
2019-05-22T00:05:47.498Z,68.10
2019-05-22T00:08:14.750Z,68.00
2019-05-22T00:10:43.710Z,68.10
2019-05-22T00:13:13.504Z,68.00
2019-05-22T00:15:40.459Z,68.10
2019-05-22T00:18:10.111Z,68.00
2019-05-22T00:20:39.017Z,68.00
2019-05-22T00:23:11.618Z,68.00
2019-05-22T00:25:40.429Z,68.10
2019-05-22T00:28:07.586Z,68.00
2019-05-22T00:30:38.507Z,68.00
2019-05-22T00:33:07.601Z,68.00
2019-05-22T00:35:36.478Z,68.00
2019-05-22T00:38:05.244Z,68.00
2019-05-22T00:40:32.449Z,68.10
2019-05-22T00:43:04.142Z,68.10
2019-05-22T00:45:30.735Z,68.10
2019-05-22T00:47:57.608Z,68.10
2019-05-22T00:50:28.213Z,68.10
2019-05-22T00:53:09.608Z,68.20
2019-05-22T00:55:49.240Z,68.10
2019-05-22T00:58:35.734Z,68.10
2019-05-22T01:01:10.063Z,68.10
2019-05-22T01:03:38.248Z,68.10
2019-05-22T01:06:05.712Z,68.10
2019-05-22T01:08:34.268Z,68.20
2019-05-22T01:11:02.742Z,68.10
2019-05-22T01:13:30.045Z,68.10
2019-05-22T01:15:58.078Z,68.20
2019-05-22T01:18:25.425Z,68.20
2019-05-22T01:20:53.411Z,68.20
2019-05-22T01:23:20.871Z,68.20
2019-05-22T01:25:48.105Z,68.10
2019-05-22T01:28:15.924Z,68.20
2019-05-22T01:30:53.646Z,68.20
2019-05-22T01:33:23.114Z,68.20
2019-05-22T01:36:19.334Z,68.20
2019-05-22T01:38:53.585Z,68.20
2019-05-22T01:41:25.731Z,68.00
2019-05-22T01:43:55.178Z,68.10
2019-05-22T01:46:25.341Z,68.10
2019-05-22T01:48:53.356Z,68.10
2019-05-22T01:51:20.578Z,68.20
2019-05-22T01:53:49.372Z,68.10
2019-05-22T01:56:19.918Z,68.10
2019-05-22T01:58:49.403Z,68.10
2019-05-22T02:01:19.508Z,68.20
2019-05-22T02:03:47.840Z,68.10
2019-05-22T02:06:16.486Z,68.20
2019-05-22T02:08:45.092Z,68.10
2019-05-22T02:11:12.562Z,68.10
2019-05-22T02:13:42.162Z,68.00
2019-05-22T02:16:11.465Z,68.20
2019-05-22T02:18:38.916Z,68.10
2019-05-22T02:21:06.422Z,68.10
2019-05-22T02:23:35.341Z,68.10
2019-05-22T02:26:02.686Z,68.10
2019-05-22T02:28:30.572Z,68.10
2019-05-22T02:30:57.841Z,68.10
2019-05-22T02:33:24.912Z,68.00
2019-05-22T02:35:52.090Z,68.10
2019-05-22T02:38:21.247Z,68.00
2019-05-22T02:40:50.051Z,68.10
2019-05-22T02:43:18.816Z,68.10
2019-05-22T02:45:46.096Z,68.10
2019-05-22T02:48:15.172Z,68.00
2019-05-22T02:50:42.171Z,68.10
2019-05-22T02:53:10.243Z,68.10
2019-05-22T02:55:37.799Z,68.00
2019-05-22T02:58:05.546Z,68.00
2019-05-22T03:00:34.739Z,68.00
2019-05-22T03:03:03.006Z,68.00
2019-05-22T03:05:30.873Z,68.10
2019-05-22T03:07:58.365Z,68.00
2019-05-22T03:10:26.398Z,68.00
2019-05-22T03:12:53.373Z,68.00
2019-05-22T03:15:22.094Z,68.00
2019-05-22T03:17:49.177Z,68.00
2019-05-22T03:20:18.425Z,68.00
2019-05-22T03:22:46.199Z,68.00
2019-05-22T03:25:15.441Z,68.00
2019-05-22T03:27:42.866Z,68.00
2019-05-22T03:30:12.582Z,67.90
2019-05-22T03:32:43.689Z,67.90
2019-05-22T03:35:10.220Z,67.90
2019-05-22T03:37:39.268Z,67.90
2019-05-22T03:40:07.078Z,67.80
2019-05-22T03:42:36.003Z,67.90
2019-05-22T03:45:03.601Z,67.90
2019-05-22T03:47:30.516Z,67.90
2019-05-22T03:49:57.535Z,67.90
2019-05-22T03:52:25.354Z,67.90
2019-05-22T03:54:53.169Z,67.90
2019-05-22T03:57:21.035Z,67.90
2019-05-22T03:59:48.940Z,67.80
2019-05-22T04:02:15.763Z,67.80
2019-05-22T04:04:43.820Z,67.90
2019-05-22T04:07:15.830Z,67.80
2019-05-22T04:09:44.705Z,67.90
2019-05-22T04:12:14.994Z,67.90
2019-05-22T04:14:42.815Z,67.80
2019-05-22T04:17:12.486Z,67.80
2019-05-22T04:19:49.565Z,68.60
2019-05-22T04:22:09.810Z,67.90
2019-05-22T04:24:37.472Z,67.90
2019-05-22T04:27:04.668Z,67.90
2019-05-22T04:29:31.652Z,67.80
2019-05-22T04:32:06.298Z,67.80
2019-05-22T04:34:33.328Z,67.80
2019-05-22T04:37:01.938Z,67.80
2019-05-22T04:39:29.457Z,67.80
2019-05-22T04:41:58.395Z,67.80
2019-05-22T04:44:26.397Z,67.90
2019-05-22T04:46:55.016Z,67.80
2019-05-22T04:49:21.939Z,67.90
2019-05-22T04:51:49.132Z,67.80
2019-05-22T04:54:16.250Z,67.90
2019-05-22T04:56:43.552Z,67.90
2019-05-22T04:59:11.257Z,67.90
2019-05-22T05:01:38.279Z,67.90
2019-05-22T05:04:06.732Z,67.90
2019-05-22T05:06:36.030Z,68.00
2019-05-22T05:09:05.129Z,68.00
2019-05-22T05:11:32.357Z,68.70
2019-05-22T05:14:02.012Z,68.00
2019-05-22T05:16:29.333Z,68.00
2019-05-22T05:18:57.057Z,67.90
2019-05-22T05:24:13.920Z,68.10
2019-05-22T05:26:41.623Z,68.00
2019-05-22T05:29:09.378Z,68.10
2019-05-22T05:31:36.560Z,68.10
2019-05-22T05:34:03.575Z,68.10
2019-05-22T05:36:31.017Z,68.10
2019-05-22T05:38:58.529Z,68.10
2019-05-22T05:41:26.303Z,68.10
2019-05-22T05:43:53.670Z,68.10
2019-05-22T05:46:22.793Z,68.10
2019-05-22T05:48:50.324Z,68.20
2019-05-22T05:54:12.027Z,68.20
2019-05-22T05:56:40.533Z,68.20
2019-05-22T05:59:07.879Z,68.20
2019-05-22T06:01:38.562Z,68.20
2019-05-22T06:04:05.865Z,68.30
2019-05-22T06:06:33.293Z,68.20
2019-05-22T06:09:00.615Z,68.20
2019-05-22T06:11:33.154Z,68.20
2019-05-22T06:14:01.080Z,68.30
2019-05-22T06:16:31.041Z,68.40
2019-05-22T06:18:58.423Z,68.40
2019-05-22T06:21:25.648Z,68.40
2019-05-22T06:23:54.245Z,68.40
2019-05-22T06:26:22.694Z,68.40
2019-05-22T06:28:49.926Z,68.40
2019-05-22T06:31:18.272Z,68.40
2019-05-22T06:33:45.384Z,68.40
2019-05-22T06:36:18.004Z,68.40
2019-05-22T06:38:46.451Z,68.50
2019-05-22T06:41:14.070Z,68.40
2019-05-22T06:43:42.102Z,68.40
2019-05-22T06:46:11.630Z,68.50
2019-05-22T06:48:39.163Z,68.50
2019-05-22T06:53:55.811Z,68.50
2019-05-22T06:56:23.818Z,68.40
2019-05-22T06:58:50.906Z,68.50
2019-05-22T07:01:17.889Z,68.60
2019-05-22T07:03:44.731Z,68.60
2019-05-22T07:06:12.123Z,68.60
2019-05-22T07:08:39.391Z,68.60
2019-05-22T07:11:07.076Z,68.60
2019-05-22T07:13:35.011Z,68.60
2019-05-22T07:16:03.339Z,68.60
2019-05-22T07:18:31.531Z,68.50
2019-05-22T07:20:59.675Z,68.70
2019-05-22T07:23:31.701Z,68.40
2019-05-22T07:25:59.060Z,68.70
2019-05-22T07:28:26.251Z,68.70
2019-05-22T07:30:53.433Z,68.80
2019-05-22T07:33:21.757Z,68.70
2019-05-22T07:36:07.953Z,68.80
2019-05-22T07:38:19.208Z,68.60
2019-05-22T07:40:50.229Z,68.80
2019-05-22T07:43:17.235Z,68.80
2019-05-22T07:45:44.650Z,68.90
2019-05-22T07:48:12.225Z,68.90
2019-05-22T07:53:30.103Z,68.90
2019-05-22T07:55:58.069Z,68.90
2019-05-22T07:58:25.467Z,68.80
2019-05-22T08:00:55.940Z,68.90
2019-05-22T08:03:25.233Z,69.00
2019-05-22T08:05:52.559Z,69.10
2019-05-22T08:08:23.277Z,69.10
2019-05-22T08:10:50.717Z,69.10
2019-05-22T08:13:17.926Z,69.10
2019-05-22T08:15:47.926Z,69.10
2019-05-22T08:18:14.547Z,69.10
2019-05-22T08:20:41.855Z,69.20
2019-05-22T08:23:09.073Z,69.20
2019-05-22T08:25:36.121Z,69.30
2019-05-22T08:28:03.623Z,69.50
2019-05-22T08:30:30.933Z,69.20
2019-05-22T08:33:00.174Z,69.40
2019-05-22T08:35:27.161Z,69.30
2019-05-22T08:37:54.723Z,69.30
2019-05-22T08:40:21.920Z,70.20
2019-05-22T08:42:50.740Z,69.50
2019-05-22T08:45:18.529Z,69.40
2019-05-22T08:50:37.007Z,69.70
2019-05-22T08:53:04.626Z,69.70
2019-05-22T08:55:31.841Z,69.70
2019-05-22T08:57:59.319Z,69.70
2019-05-22T09:00:27.051Z,69.70
2019-05-22T09:02:54.577Z,69.70
2019-05-22T09:05:22.099Z,69.80
2019-05-22T09:07:49.921Z,69.70
2019-05-22T09:10:16.998Z,69.70
2019-05-22T09:12:44.175Z,69.60
2019-05-22T09:15:15.257Z,69.80
2019-05-22T09:17:42.215Z,69.70
2019-05-22T09:20:10.542Z,69.80
2019-05-22T09:22:41.089Z,69.90
2019-05-22T09:25:09.499Z,69.80
2019-05-22T09:27:39.235Z,69.80
2019-05-22T09:30:07.367Z,69.80
2019-05-22T09:32:34.410Z,69.80
2019-05-22T09:35:01.923Z,69.80
2019-05-22T09:37:29.023Z,69.70
2019-05-22T09:39:56.005Z,69.80
2019-05-22T09:42:22.938Z,69.70
2019-05-22T09:44:49.761Z,69.80
2019-05-22T09:47:16.888Z,69.70
2019-05-22T09:49:44.917Z,69.80
2019-05-22T09:52:11.760Z,69.70
2019-05-22T09:54:40.320Z,69.80
2019-05-22T09:57:08.530Z,69.80
2019-05-22T09:59:35.616Z,69.70
2019-05-22T10:02:02.888Z,69.70
2019-05-22T10:04:30.185Z,69.60
2019-05-22T10:06:59.216Z,69.70
2019-05-22T10:09:26.211Z,69.70
2019-05-22T10:11:53.134Z,69.70
2019-05-22T10:14:20.274Z,69.70
2019-05-22T10:16:47.240Z,69.70
2019-05-22T10:19:14.326Z,69.60
2019-05-22T10:21:41.623Z,70.40
2019-05-22T10:24:08.989Z,69.60
2019-05-22T10:26:36.349Z,69.60
2019-05-22T10:29:03.650Z,69.60
2019-05-22T10:31:30.967Z,69.50
2019-05-22T10:33:57.848Z,69.60
2019-05-22T10:36:25.185Z,69.50
2019-05-22T10:38:52.107Z,69.60
2019-05-22T10:41:19.489Z,69.50
2019-05-22T10:43:46.501Z,69.60
2019-05-22T10:46:13.501Z,69.50
2019-05-22T10:48:40.856Z,69.50
2019-05-22T10:51:07.949Z,69.40
2019-05-22T10:53:35.163Z,69.40
2019-05-22T10:56:02.170Z,69.40
2019-05-22T10:58:29.059Z,69.40
2019-05-22T11:00:56.106Z,69.40
2019-05-22T11:03:24.060Z,69.30
2019-05-22T11:06:05.624Z,69.30
2019-05-22T11:08:20.880Z,69.30
2019-05-22T11:10:48.056Z,69.30
2019-05-22T11:13:15.535Z,69.20
2019-05-22T11:15:43.071Z,69.20
2019-05-22T11:18:10.251Z,69.20
2019-05-22T11:20:37.260Z,69.20
2019-05-22T11:23:05.428Z,69.10
2019-05-22T11:25:32.352Z,69.10
2019-05-22T11:27:59.373Z,69.10
2019-05-22T11:30:26.315Z,69.10
2019-05-22T11:32:54.562Z,69.10
2019-05-22T11:35:21.913Z,69.00
2019-05-22T11:37:49.266Z,69.00
2019-05-22T11:40:16.840Z,69.00
2019-05-22T11:42:43.992Z,68.90
2019-05-22T11:45:13.751Z,68.90
2019-05-22T11:47:40.893Z,68.90
2019-05-22T11:50:08.231Z,68.80
2019-05-22T11:52:36.205Z,68.80
2019-05-22T11:55:05.594Z,68.80
2019-05-22T11:57:33.859Z,69.60
2019-05-22T12:00:01.004Z,68.80
2019-05-22T12:02:28.051Z,68.60
2019-05-22T12:04:55.043Z,68.60
2019-05-22T12:07:22.357Z,68.60
2019-05-22T12:09:49.212Z,68.60
2019-05-22T12:12:16.619Z,68.50
2019-05-22T12:14:43.795Z,68.50
2019-05-22T12:17:11.006Z,68.50
2019-05-22T12:19:38.209Z,68.40
2019-05-22T12:22:05.259Z,68.40
2019-05-22T12:24:36.839Z,68.30
2019-05-22T12:27:00.741Z,68.30
2019-05-22T12:29:28.885Z,68.30
2019-05-22T12:31:56.210Z,68.20
2019-05-22T12:34:26.561Z,68.30
2019-05-22T12:36:53.852Z,68.20
2019-05-22T12:39:21.768Z,68.10
2019-05-22T12:41:49.083Z,68.10
2019-05-22T12:44:16.169Z,68.00
2019-05-22T12:46:43.027Z,68.00
2019-05-22T12:49:10.457Z,68.10
2019-05-22T12:51:37.288Z,68.00
2019-05-22T12:54:04.509Z,67.90
2019-05-22T12:56:31.729Z,67.90
2019-05-22T12:58:58.806Z,67.90
2019-05-22T13:01:26.159Z,67.90
2019-05-22T13:03:54.035Z,68.60
2019-05-22T13:06:21.293Z,67.70
2019-05-22T13:08:48.396Z,67.80
2019-05-22T13:11:16.069Z,67.80
2019-05-22T13:13:43.102Z,67.80
2019-05-22T13:16:10.790Z,67.70
2019-05-22T13:18:37.953Z,67.80
2019-05-22T13:21:05.793Z,68.50
2019-05-22T13:23:46.465Z,67.70
2019-05-22T13:26:13.426Z,67.70
2019-05-22T13:28:40.507Z,67.60
2019-05-22T13:31:08.419Z,67.60
2019-05-22T13:33:37.154Z,67.60
2019-05-22T13:36:04.793Z,67.50
2019-05-22T13:38:31.910Z,67.60
2019-05-22T13:40:59.055Z,67.50
2019-05-22T13:43:26.974Z,67.60
2019-05-22T13:45:54.159Z,67.50
2019-05-22T13:48:21.026Z,67.50
2019-05-22T13:50:47.896Z,67.50
2019-05-22T13:53:15.482Z,67.40
2019-05-22T13:55:43.421Z,67.50
2019-05-22T13:58:11.180Z,67.40
2019-05-22T14:00:38.145Z,67.40
2019-05-22T14:03:05.267Z,67.50
2019-05-22T14:05:33.526Z,67.40
2019-05-22T14:08:00.534Z,67.40
2019-05-22T14:10:28.043Z,67.30
2019-05-22T14:12:55.011Z,67.40
2019-05-22T14:15:22.051Z,67.40
2019-05-22T14:17:49.566Z,67.40
2019-05-22T14:20:16.523Z,67.30
2019-05-22T14:22:43.503Z,67.30
2019-05-22T14:25:10.245Z,67.20
2019-05-22T14:27:41.485Z,67.20
2019-05-22T14:30:06.248Z,67.20
2019-05-22T14:32:33.238Z,67.20
2019-05-22T14:35:00.517Z,67.20
2019-05-22T14:37:27.748Z,67.20
2019-05-22T14:39:54.916Z,67.20
2019-05-22T14:42:22.404Z,67.20
2019-05-22T14:44:49.760Z,67.10
2019-05-22T14:47:17.344Z,67.10
2019-05-22T14:49:44.495Z,67.10
2019-05-22T14:52:12.778Z,67.20
2019-05-22T14:54:39.930Z,67.10
2019-05-22T14:57:07.470Z,67.10
2019-05-22T14:59:34.325Z,67.10
2019-05-22T15:02:01.110Z,67.10
2019-05-22T15:04:29.103Z,67.10
2019-05-22T15:06:55.980Z,67.00
2019-05-22T15:09:23.814Z,67.00
2019-05-22T15:11:51.089Z,67.00
2019-05-22T15:14:18.206Z,67.00
2019-05-22T15:16:45.151Z,67.00
2019-05-22T15:19:11.877Z,66.90
2019-05-22T15:21:38.789Z,67.00
2019-05-22T15:24:06.536Z,66.90
2019-05-22T15:26:33.380Z,66.90
2019-05-22T15:29:00.392Z,66.90
2019-05-22T15:31:27.740Z,66.90
2019-05-22T15:33:55.016Z,66.90
2019-05-22T15:36:22.292Z,66.80
2019-05-22T15:38:50.135Z,66.80
2019-05-22T15:41:17.817Z,66.80
2019-05-22T15:43:51.474Z,66.80
2019-05-22T15:46:14.996Z,66.80
2019-05-22T15:48:43.478Z,66.70
2019-05-22T15:51:10.207Z,66.70
2019-05-22T15:53:36.958Z,66.70
2019-05-22T15:56:04.009Z,66.70
2019-05-22T15:58:32.219Z,66.70
2019-05-22T16:01:00.030Z,66.70
2019-05-22T16:03:27.574Z,66.50
2019-05-22T16:05:54.326Z,66.60
2019-05-22T16:08:21.385Z,66.60
2019-05-22T16:10:49.625Z,66.60
2019-05-22T16:13:17.430Z,66.60
2019-05-22T16:15:44.762Z,66.60
2019-05-22T16:18:15.359Z,66.60
2019-05-22T16:20:43.906Z,66.60
2019-05-22T16:23:10.897Z,66.70
2019-05-22T16:25:39.025Z,66.70
2019-05-22T16:28:06.033Z,66.70
2019-05-22T16:30:33.571Z,66.70
2019-05-22T16:33:00.526Z,66.60
2019-05-22T16:35:27.308Z,66.70
2019-05-22T16:37:54.132Z,66.70
2019-05-22T16:40:21.885Z,66.70
2019-05-22T16:42:48.996Z,66.70
2019-05-22T16:45:15.993Z,66.70
2019-05-22T16:47:42.819Z,66.70
2019-05-22T16:50:10.521Z,66.70
2019-05-22T16:52:38.827Z,66.80
2019-05-22T16:55:05.713Z,66.80
2019-05-22T16:57:34.760Z,66.70
2019-05-22T17:00:05.708Z,66.70
2019-05-22T17:02:32.941Z,66.70
2019-05-22T17:05:02.217Z,66.70
2019-05-22T17:07:29.237Z,66.60
2019-05-22T17:09:56.067Z,66.60
2019-05-22T17:12:25.042Z,66.70
2019-05-22T17:14:51.991Z,66.50
2019-05-22T17:17:19.145Z,66.60
2019-05-22T17:19:46.184Z,66.60
2019-05-22T17:22:14.787Z,66.60
2019-05-22T17:24:42.161Z,66.70
2019-05-22T17:27:09.776Z,66.60
2019-05-22T17:29:37.424Z,66.60
2019-05-22T17:32:04.937Z,66.50
2019-05-22T17:34:32.901Z,66.50
2019-05-22T17:37:02.259Z,66.60
2019-05-22T17:39:31.126Z,66.50
2019-05-22T17:41:58.550Z,66.60
2019-05-22T17:44:25.998Z,66.50
2019-05-22T17:46:53.609Z,66.50
2019-05-22T17:49:21.524Z,66.40
2019-05-22T17:51:48.322Z,66.40
2019-05-22T17:54:15.273Z,66.40
2019-05-22T17:56:44.077Z,66.40
2019-05-22T17:59:11.390Z,66.30
2019-05-22T18:01:39.006Z,66.30
2019-05-22T18:04:05.973Z,66.30
2019-05-22T18:06:32.980Z,66.30
2019-05-22T18:09:01.043Z,66.40
2019-05-22T18:11:28.322Z,66.40
2019-05-22T18:13:55.984Z,66.30
2019-05-22T18:16:23.576Z,66.40
2019-05-22T18:18:51.631Z,66.20
2019-05-22T18:21:20.036Z,66.20
2019-05-22T18:23:47.423Z,66.20
2019-05-22T18:26:16.949Z,66.10
2019-05-22T18:28:43.950Z,66.10
2019-05-22T18:31:10.989Z,66.10
2019-05-22T18:33:38.406Z,66.10
2019-05-22T18:36:05.446Z,66.10
2019-05-22T18:38:32.415Z,66.20
2019-05-22T18:41:01.510Z,66.00
2019-05-22T18:43:28.838Z,66.10
2019-05-22T18:45:57.030Z,66.10
2019-05-22T18:48:24.852Z,66.10
2019-05-22T18:50:53.547Z,66.10
2019-05-22T18:53:23.273Z,66.90
2019-05-22T18:55:50.492Z,66.10
2019-05-22T18:58:17.852Z,66.00
2019-05-22T19:00:46.786Z,66.00
2019-05-22T19:03:14.146Z,66.00
2019-05-22T19:05:41.611Z,66.00
2019-05-22T19:08:08.959Z,66.00
2019-05-22T19:10:35.976Z,66.00
2019-05-22T19:13:03.194Z,66.00
2019-05-22T19:15:30.828Z,66.00
2019-05-22T19:17:58.801Z,66.10
2019-05-22T19:20:25.956Z,66.20
2019-05-22T19:23:00.451Z,66.10
2019-05-22T19:25:23.595Z,66.10
2019-05-22T19:30:44.493Z,66.20
2019-05-22T19:33:14.700Z,66.00
2019-05-22T19:35:40.831Z,66.00
2019-05-22T19:38:08.424Z,66.20
2019-05-22T19:40:37.802Z,66.10
2019-05-22T19:43:05.738Z,66.20
2019-05-22T19:45:32.930Z,66.20
2019-05-22T19:47:59.801Z,66.20
2019-05-22T19:50:28.874Z,66.10
2019-05-22T19:52:57.185Z,66.20
2019-05-22T19:55:24.642Z,66.20
2019-05-22T19:57:51.830Z,66.20
2019-05-22T20:00:19.737Z,66.10
2019-05-22T20:05:38.995Z,66.00
2019-05-22T20:08:06.892Z,66.00
2019-05-22T20:10:34.708Z,66.10
2019-05-22T20:13:02.053Z,66.00
2019-05-22T20:15:29.364Z,66.10
2019-05-22T20:17:56.573Z,66.00
2019-05-22T20:20:24.012Z,66.20
2019-05-22T20:22:52.183Z,65.90
2019-05-22T20:25:48.385Z,66.00
2019-05-22T20:28:19.764Z,66.00
2019-05-22T20:30:47.934Z,66.00
2019-05-22T20:33:15.388Z,65.90
2019-05-22T20:35:42.761Z,66.00
2019-05-22T20:38:09.946Z,66.00
2019-05-22T20:40:37.564Z,66.00
2019-05-22T20:43:05.215Z,66.00
2019-05-22T20:45:33.539Z,66.00
2019-05-22T20:48:03.025Z,66.10
2019-05-22T20:50:30.604Z,66.00
2019-05-22T20:52:57.897Z,66.10
2019-05-22T20:55:25.700Z,66.00
2019-05-22T20:57:54.560Z,66.00
2019-05-22T21:00:25.406Z,65.90
2019-05-22T21:02:53.175Z,66.00
2019-05-22T21:05:20.931Z,65.90
2019-05-22T21:07:48.560Z,66.00
2019-05-22T21:10:16.510Z,65.90
2019-05-22T21:12:44.598Z,66.00
2019-05-22T21:15:12.375Z,66.00
2019-05-22T21:17:40.073Z,65.90
2019-05-22T21:20:08.395Z,65.90
2019-05-22T21:22:35.580Z,65.90
2019-05-22T21:25:02.552Z,65.90
2019-05-22T21:27:34.816Z,65.90
2019-05-22T21:30:03.500Z,66.00
2019-05-22T21:32:31.548Z,66.00
2019-05-22T21:34:59.546Z,65.90
2019-05-22T21:37:27.699Z,65.80
2019-05-22T21:39:55.348Z,66.00
2019-05-22T21:42:23.351Z,65.90
2019-05-22T21:44:50.458Z,65.90
2019-05-22T21:47:18.312Z,65.90
2019-05-22T21:49:46.636Z,66.00
2019-05-22T21:52:14.002Z,65.90
2019-05-22T21:54:42.184Z,66.00
2019-05-22T21:57:12.645Z,65.70
2019-05-22T21:59:41.082Z,65.90
2019-05-22T22:02:18.918Z,65.90
2019-05-22T22:04:48.978Z,65.90
2019-05-22T22:07:17.214Z,65.90
2019-05-22T22:09:44.183Z,65.90
2019-05-22T22:12:12.724Z,65.90
2019-05-22T22:14:40.370Z,65.90
2019-05-22T22:17:09.790Z,65.90
2019-05-22T22:19:40.001Z,65.90
2019-05-22T22:22:06.913Z,65.80
2019-05-22T22:24:34.599Z,65.90
2019-05-22T22:27:04.371Z,65.90
2019-05-22T22:29:32.045Z,65.90
2019-05-22T22:31:59.834Z,65.90
2019-05-22T22:34:27.187Z,65.90
2019-05-22T22:36:54.380Z,65.90
2019-05-22T22:39:22.986Z,66.00
2019-05-22T22:41:50.389Z,66.00
2019-05-22T22:44:17.623Z,65.90
2019-05-22T22:46:53.858Z,66.00
2019-05-22T22:49:21.278Z,65.90
2019-05-22T22:51:49.975Z,65.90
2019-05-22T22:54:17.607Z,65.90
2019-05-22T22:56:45.393Z,66.00
2019-05-22T22:59:14.946Z,66.00
2019-05-22T23:01:44.103Z,66.00
2019-05-22T23:04:11.854Z,65.90
2019-05-22T23:06:39.586Z,66.00
2019-05-22T23:09:08.460Z,66.00
2019-05-22T23:11:36.235Z,65.90
2019-05-22T23:14:04.102Z,66.00
2019-05-22T23:16:32.483Z,65.80
2019-05-22T23:18:59.800Z,65.90
2019-05-22T23:21:28.223Z,66.00
2019-05-22T23:23:55.544Z,65.90
2019-05-22T23:26:25.651Z,65.90
2019-05-22T23:28:52.530Z,65.80
2019-05-22T23:31:19.337Z,65.90
2019-05-22T23:33:47.504Z,65.90
2019-05-22T23:36:17.684Z,65.90
2019-05-22T23:38:44.904Z,66.00
2019-05-22T23:41:12.741Z,65.90
2019-05-22T23:43:40.098Z,65.90
2019-05-22T23:46:08.321Z,66.00
2019-05-22T23:48:37.882Z,65.90
2019-05-22T23:51:05.881Z,65.90
2019-05-22T23:53:35.440Z,65.90
2019-05-22T23:56:04.090Z,66.00
2019-05-22T23:58:32.345Z,65.90
